sensor_id;sensor_type;location;lat;lon;timestamp;temperature;humidity
32097;DHT22;18610;49.916;8.284;2023-05-18T00:00:17;9.30;99.90
32097;DHT22;18610;49.916;8.284;2023-05-18T00:02:44;9.30;99.90
32097;DHT22;18610;49.916;8.284;2023-05-18T00:05:12;9.20;99.90
32097;DHT22;18610;49.916;8.284;2023-05-18T00:07:39;9.20;99.90
32097;DHT22;18610;49.916;8.284;2023-05-18T00:10:08;9.20;99.90
32097;DHT22;18610;49.916;8.284;2023-05-18T00:12:36;9.10;99.90
32097;DHT22;18610;49.916;8.284;2023-05-18T00:15:04;9.10;99.90
32097;DHT22;18610;49.916;8.284;2023-05-18T00:17:31;9.10;99.90
32097;DHT22;18610;49.916;8.284;2023-05-18T00:19:57;9.10;99.90
32097;DHT22;18610;49.916;8.284;2023-05-18T00:22:25;9.00;99.90
32097;DHT22;18610;49.916;8.284;2023-05-18T00:24:52;9.00;99.90
32097;DHT22;18610;49.916;8.284;2023-05-18T00:27:18;8.90;99.90
32097;DHT22;18610;49.916;8.284;2023-05-18T00:29:46;8.80;99.90
32097;DHT22;18610;49.916;8.284;2023-05-18T00:32:13;8.70;99.90
32097;DHT22;18610;49.916;8.284;2023-05-18T00:34:40;8.80;99.90
32097;DHT22;18610;49.916;8.284;2023-05-18T00:37:06;8.70;99.90
32097;DHT22;18610;49.916;8.284;2023-05-18T00:39:33;8.70;99.90
32097;DHT22;18610;49.916;8.284;2023-05-18T00:42:00;8.70;99.90
32097;DHT22;18610;49.916;8.284;2023-05-18T00:44:27;8.60;99.90
32097;DHT22;18610;49.916;8.284;2023-05-18T00:46:55;8.60;99.90
32097;DHT22;18610;49.916;8.284;2023-05-18T00:49:21;8.60;99.90
32097;DHT22;18610;49.916;8.284;2023-05-18T00:51:48;8.60;99.90
32097;DHT22;18610;49.916;8.284;2023-05-18T00:54:15;8.50;99.90
32097;DHT22;18610;49.916;8.284;2023-05-18T00:56:43;8.50;99.90
32097;DHT22;18610;49.916;8.284;2023-05-18T00:59:10;8.40;99.90
32097;DHT22;18610;49.916;8.284;2023-05-18T01:01:37;8.40;99.90
32097;DHT22;18610;49.916;8.284;2023-05-18T01:04:09;8.30;99.90
32097;DHT22;18610;49.916;8.284;2023-05-18T01:06:38;8.30;99.90
32097;DHT22;18610;49.916;8.284;2023-05-18T01:09:08;8.20;99.90
32097;DHT22;18610;49.916;8.284;2023-05-18T01:11:44;8.20;99.90
32097;DHT22;18610;49.916;8.284;2023-05-18T01:14:19;8.20;99.90
32097;DHT22;18610;49.916;8.284;2023-05-18T01:16:51;8.20;99.90
32097;DHT22;18610;49.916;8.284;2023-05-18T01:19:40;8.20;99.90
32097;DHT22;18610;49.916;8.284;2023-05-18T01:22:16;8.20;99.90
32097;DHT22;18610;49.916;8.284;2023-05-18T01:24:52;8.20;99.90
32097;DHT22;18610;49.916;8.284;2023-05-18T01:27:25;8.20;99.90
32097;DHT22;18610;49.916;8.284;2023-05-18T01:29:53;8.20;99.90
32097;DHT22;18610;49.916;8.284;2023-05-18T01:32:21;8.20;99.90
32097;DHT22;18610;49.916;8.284;2023-05-18T01:34:48;8.20;99.90
32097;DHT22;18610;49.916;8.284;2023-05-18T01:37:14;8.20;99.90
32097;DHT22;18610;49.916;8.284;2023-05-18T01:39:41;8.20;99.90
32097;DHT22;18610;49.916;8.284;2023-05-18T01:42:12;8.10;99.90
32097;DHT22;18610;49.916;8.284;2023-05-18T01:44:46;8.10;99.90
32097;DHT22;18610;49.916;8.284;2023-05-18T01:47:14;8.10;99.90
32097;DHT22;18610;49.916;8.284;2023-05-18T01:49:44;8.10;99.90
32097;DHT22;18610;49.916;8.284;2023-05-18T01:52:17;8.10;99.90
32097;DHT22;18610;49.916;8.284;2023-05-18T01:54:49;8.10;99.90
32097;DHT22;18610;49.916;8.284;2023-05-18T01:57:17;8.10;99.90
32097;DHT22;18610;49.916;8.284;2023-05-18T01:59:47;8.00;99.90
32097;DHT22;18610;49.916;8.284;2023-05-18T02:02:15;8.10;99.90
32097;DHT22;18610;49.916;8.284;2023-05-18T02:04:42;8.10;99.90
32097;DHT22;18610;49.916;8.284;2023-05-18T02:07:09;8.10;99.90
32097;DHT22;18610;49.916;8.284;2023-05-18T02:09:36;8.10;99.90
32097;DHT22;18610;49.916;8.284;2023-05-18T02:12:03;8.10;99.90
32097;DHT22;18610;49.916;8.284;2023-05-18T02:14:30;8.10;99.90
32097;DHT22;18610;49.916;8.284;2023-05-18T02:16:59;8.10;99.90
32097;DHT22;18610;49.916;8.284;2023-05-18T02:19:26;8.10;99.90
32097;DHT22;18610;49.916;8.284;2023-05-18T02:21:55;8.10;99.90
32097;DHT22;18610;49.916;8.284;2023-05-18T02:24:22;8.10;99.90
32097;DHT22;18610;49.916;8.284;2023-05-18T02:26:49;8.10;99.90
32097;DHT22;18610;49.916;8.284;2023-05-18T02:29:16;8.00;99.90
32097;DHT22;18610;49.916;8.284;2023-05-18T02:31:42;8.00;99.90
32097;DHT22;18610;49.916;8.284;2023-05-18T02:34:10;8.00;99.90
32097;DHT22;18610;49.916;8.284;2023-05-18T02:36:39;8.00;99.90
32097;DHT22;18610;49.916;8.284;2023-05-18T02:39:07;8.00;99.90
32097;DHT22;18610;49.916;8.284;2023-05-18T02:41:34;7.90;99.90
32097;DHT22;18610;49.916;8.284;2023-05-18T02:44:01;7.90;99.90
32097;DHT22;18610;49.916;8.284;2023-05-18T02:46:28;7.90;99.90
32097;DHT22;18610;49.916;8.284;2023-05-18T02:48:55;7.80;99.90
32097;DHT22;18610;49.916;8.284;2023-05-18T02:51:24;7.80;99.90
32097;DHT22;18610;49.916;8.284;2023-05-18T02:53:51;7.80;99.90
32097;DHT22;18610;49.916;8.284;2023-05-18T02:56:17;7.80;99.90
32097;DHT22;18610;49.916;8.284;2023-05-18T02:58:44;7.80;99.90
32097;DHT22;18610;49.916;8.284;2023-05-18T03:01:11;7.80;99.90
32097;DHT22;18610;49.916;8.284;2023-05-18T03:03:38;7.80;99.90
32097;DHT22;18610;49.916;8.284;2023-05-18T03:06:06;7.80;99.90
32097;DHT22;18610;49.916;8.284;2023-05-18T03:08:35;7.80;99.90
32097;DHT22;18610;49.916;8.284;2023-05-18T03:11:02;7.80;99.90
32097;DHT22;18610;49.916;8.284;2023-05-18T03:13:29;7.80;99.90
32097;DHT22;18610;49.916;8.284;2023-05-18T03:15:55;7.80;99.90
32097;DHT22;18610;49.916;8.284;2023-05-18T03:18:22;7.80;99.90
32097;DHT22;18610;49.916;8.284;2023-05-18T03:20:50;7.80;99.90
32097;DHT22;18610;49.916;8.284;2023-05-18T03:23:17;7.80;99.90
32097;DHT22;18610;49.916;8.284;2023-05-18T03:25:45;7.80;99.90
32097;DHT22;18610;49.916;8.284;2023-05-18T03:28:18;7.80;99.90
32097;DHT22;18610;49.916;8.284;2023-05-18T03:30:44;7.80;99.90
32097;DHT22;18610;49.916;8.284;2023-05-18T03:33:11;7.80;99.90
32097;DHT22;18610;49.916;8.284;2023-05-18T03:35:38;7.80;99.90
32097;DHT22;18610;49.916;8.284;2023-05-18T03:38:05;7.90;99.90
32097;DHT22;18610;49.916;8.284;2023-05-18T03:40:31;7.90;99.90
32097;DHT22;18610;49.916;8.284;2023-05-18T03:42:59;7.90;99.90
32097;DHT22;18610;49.916;8.284;2023-05-18T03:45:26;7.90;99.90
32097;DHT22;18610;49.916;8.284;2023-05-18T03:47:53;7.90;99.90
32097;DHT22;18610;49.916;8.284;2023-05-18T03:50:20;7.80;99.90
32097;DHT22;18610;49.916;8.284;2023-05-18T03:52:46;7.80;99.90
32097;DHT22;18610;49.916;8.284;2023-05-18T03:55:13;7.80;99.90
32097;DHT22;18610;49.916;8.284;2023-05-18T03:57:40;7.80;99.90
32097;DHT22;18610;49.916;8.284;2023-05-18T04:00:09;7.80;99.90
32097;DHT22;18610;49.916;8.284;2023-05-18T04:02:37;7.80;99.90
32097;DHT22;18610;49.916;8.284;2023-05-18T04:05:06;7.80;99.90
32097;DHT22;18610;49.916;8.284;2023-05-18T04:07:33;7.80;99.90
32097;DHT22;18610;49.916;8.284;2023-05-18T04:10:08;7.80;99.90
32097;DHT22;18610;49.916;8.284;2023-05-18T04:12:36;7.90;99.90
32097;DHT22;18610;49.916;8.284;2023-05-18T04:15:03;7.90;99.90
32097;DHT22;18610;49.916;8.284;2023-05-18T04:17:31;7.90;99.90
32097;DHT22;18610;49.916;8.284;2023-05-18T04:20:00;7.90;99.90
32097;DHT22;18610;49.916;8.284;2023-05-18T04:22:30;7.90;99.90
32097;DHT22;18610;49.916;8.284;2023-05-18T04:24:57;7.90;99.90
32097;DHT22;18610;49.916;8.284;2023-05-18T04:27:26;7.90;99.90
32097;DHT22;18610;49.916;8.284;2023-05-18T04:29:54;7.90;99.90
32097;DHT22;18610;49.916;8.284;2023-05-18T04:32:20;8.00;99.90
32097;DHT22;18610;49.916;8.284;2023-05-18T04:34:52;8.10;99.90
32097;DHT22;18610;49.916;8.284;2023-05-18T04:37:19;8.10;99.90
32097;DHT22;18610;49.916;8.284;2023-05-18T04:39:46;8.20;99.90
32097;DHT22;18610;49.916;8.284;2023-05-18T04:42:13;8.30;99.90
32097;DHT22;18610;49.916;8.284;2023-05-18T04:44:43;8.30;99.90
32097;DHT22;18610;49.916;8.284;2023-05-18T04:47:10;8.40;99.90
32097;DHT22;18610;49.916;8.284;2023-05-18T04:49:36;8.50;99.90
32097;DHT22;18610;49.916;8.284;2023-05-18T04:52:05;8.50;99.90
32097;DHT22;18610;49.916;8.284;2023-05-18T04:54:34;8.60;99.90
32097;DHT22;18610;49.916;8.284;2023-05-18T04:57:01;8.70;99.90
32097;DHT22;18610;49.916;8.284;2023-05-18T04:59:28;8.80;99.90
32097;DHT22;18610;49.916;8.284;2023-05-18T05:01:55;8.90;99.90
32097;DHT22;18610;49.916;8.284;2023-05-18T05:04:22;9.00;99.90
32097;DHT22;18610;49.916;8.284;2023-05-18T05:06:49;9.10;99.90
32097;DHT22;18610;49.916;8.284;2023-05-18T05:09:17;9.20;99.90
32097;DHT22;18610;49.916;8.284;2023-05-18T05:11:43;9.30;99.90
32097;DHT22;18610;49.916;8.284;2023-05-18T05:14:10;9.40;99.90
32097;DHT22;18610;49.916;8.284;2023-05-18T05:16:37;9.50;99.90
32097;DHT22;18610;49.916;8.284;2023-05-18T05:19:04;9.50;99.90
32097;DHT22;18610;49.916;8.284;2023-05-18T05:21:31;9.60;99.90
32097;DHT22;18610;49.916;8.284;2023-05-18T05:23:57;9.70;99.90
32097;DHT22;18610;49.916;8.284;2023-05-18T05:26:27;9.80;99.90
32097;DHT22;18610;49.916;8.284;2023-05-18T05:28:54;9.90;99.90
32097;DHT22;18610;49.916;8.284;2023-05-18T05:31:20;10.00;99.90
32097;DHT22;18610;49.916;8.284;2023-05-18T05:33:47;10.10;99.90
32097;DHT22;18610;49.916;8.284;2023-05-18T05:36:14;10.20;99.90
32097;DHT22;18610;49.916;8.284;2023-05-18T05:38:40;10.20;99.90
32097;DHT22;18610;49.916;8.284;2023-05-18T05:41:07;10.40;99.90
32097;DHT22;18610;49.916;8.284;2023-05-18T05:43:35;10.40;99.90
32097;DHT22;18610;49.916;8.284;2023-05-18T05:46:02;10.50;99.90
32097;DHT22;18610;49.916;8.284;2023-05-18T05:48:29;10.60;99.90
32097;DHT22;18610;49.916;8.284;2023-05-18T05:50:55;10.70;99.90
32097;DHT22;18610;49.916;8.284;2023-05-18T05:53:22;10.80;99.90
32097;DHT22;18610;49.916;8.284;2023-05-18T05:55:49;10.90;99.90
32097;DHT22;18610;49.916;8.284;2023-05-18T05:58:16;11.00;99.90
32097;DHT22;18610;49.916;8.284;2023-05-18T06:00:44;11.10;99.90
32097;DHT22;18610;49.916;8.284;2023-05-18T06:03:11;11.20;99.90
32097;DHT22;18610;49.916;8.284;2023-05-18T06:05:38;11.30;99.90
32097;DHT22;18610;49.916;8.284;2023-05-18T06:08:05;11.40;99.90
32097;DHT22;18610;49.916;8.284;2023-05-18T06:10:32;11.40;99.70
32097;DHT22;18610;49.916;8.284;2023-05-18T06:12:58;11.60;99.70
32097;DHT22;18610;49.916;8.284;2023-05-18T06:15:25;11.60;99.40
32097;DHT22;18610;49.916;8.284;2023-05-18T06:17:53;11.80;98.80
32097;DHT22;18610;49.916;8.284;2023-05-18T06:20:20;11.80;98.50
32097;DHT22;18610;49.916;8.284;2023-05-18T06:22:47;11.90;98.30
32097;DHT22;18610;49.916;8.284;2023-05-18T06:25:13;12.00;98.30
32097;DHT22;18610;49.916;8.284;2023-05-18T06:27:40;12.10;98.10
32097;DHT22;18610;49.916;8.284;2023-05-18T06:30:09;12.20;97.70
32097;DHT22;18610;49.916;8.284;2023-05-18T06:32:36;12.30;97.60
32097;DHT22;18610;49.916;8.284;2023-05-18T06:35:05;12.40;97.10
32097;DHT22;18610;49.916;8.284;2023-05-18T06:37:31;12.40;97.00
32097;DHT22;18610;49.916;8.284;2023-05-18T06:39:58;12.50;96.30
32097;DHT22;18610;49.916;8.284;2023-05-18T06:42:25;12.60;96.30
32097;DHT22;18610;49.916;8.284;2023-05-18T06:44:52;12.60;96.20
32097;DHT22;18610;49.916;8.284;2023-05-18T06:47:19;12.70;95.90
32097;DHT22;18610;49.916;8.284;2023-05-18T06:49:45;12.70;96.00
32097;DHT22;18610;49.916;8.284;2023-05-18T06:52:14;12.80;95.50
32097;DHT22;18610;49.916;8.284;2023-05-18T06:54:40;12.90;95.50
32097;DHT22;18610;49.916;8.284;2023-05-18T06:57:07;12.90;95.60
32097;DHT22;18610;49.916;8.284;2023-05-18T06:59:34;13.00;95.70
32097;DHT22;18610;49.916;8.284;2023-05-18T07:02:01;13.10;95.50
32097;DHT22;18610;49.916;8.284;2023-05-18T07:04:28;13.30;95.20
32097;DHT22;18610;49.916;8.284;2023-05-18T07:06:55;13.30;94.70
32097;DHT22;18610;49.916;8.284;2023-05-18T07:09:25;13.40;94.50
32097;DHT22;18610;49.916;8.284;2023-05-18T07:11:52;13.50;94.40
32097;DHT22;18610;49.916;8.284;2023-05-18T07:14:18;13.60;94.60
32097;DHT22;18610;49.916;8.284;2023-05-18T07:16:45;13.70;94.30
32097;DHT22;18610;49.916;8.284;2023-05-18T07:19:12;13.70;93.70
32097;DHT22;18610;49.916;8.284;2023-05-18T07:21:39;13.80;93.30
32097;DHT22;18610;49.916;8.284;2023-05-18T07:24:05;13.90;93.40
32097;DHT22;18610;49.916;8.284;2023-05-18T07:26:34;14.00;92.50
32097;DHT22;18610;49.916;8.284;2023-05-18T07:29:00;14.10;92.10
32097;DHT22;18610;49.916;8.284;2023-05-18T07:31:27;14.20;92.70
32097;DHT22;18610;49.916;8.284;2023-05-18T07:33:54;14.30;92.50
32097;DHT22;18610;49.916;8.284;2023-05-18T07:36:20;14.50;93.00
32097;DHT22;18610;49.916;8.284;2023-05-18T07:38:48;14.60;92.90
32097;DHT22;18610;49.916;8.284;2023-05-18T07:41:19;14.70;91.30
32097;DHT22;18610;49.916;8.284;2023-05-18T07:43:48;14.80;90.80
32097;DHT22;18610;49.916;8.284;2023-05-18T07:46:15;14.90;90.70
32097;DHT22;18610;49.916;8.284;2023-05-18T07:48:41;15.00;90.30
32097;DHT22;18610;49.916;8.284;2023-05-18T07:51:09;15.00;89.20
32097;DHT22;18610;49.916;8.284;2023-05-18T07:53:36;15.00;88.30
32097;DHT22;18610;49.916;8.284;2023-05-18T07:56:04;15.10;89.70
32097;DHT22;18610;49.916;8.284;2023-05-18T07:58:32;15.10;89.10
32097;DHT22;18610;49.916;8.284;2023-05-18T08:01:00;15.20;88.50
32097;DHT22;18610;49.916;8.284;2023-05-18T08:03:27;15.30;87.20
32097;DHT22;18610;49.916;8.284;2023-05-18T08:05:53;15.30;87.90
32097;DHT22;18610;49.916;8.284;2023-05-18T08:08:20;15.40;88.60
32097;DHT22;18610;49.916;8.284;2023-05-18T08:10:47;15.50;85.60
32097;DHT22;18610;49.916;8.284;2023-05-18T08:13:13;15.70;86.20
32097;DHT22;18610;49.916;8.284;2023-05-18T08:15:40;15.70;85.20
32097;DHT22;18610;49.916;8.284;2023-05-18T08:18:08;15.80;83.20
32097;DHT22;18610;49.916;8.284;2023-05-18T08:20:35;15.90;84.70
32097;DHT22;18610;49.916;8.284;2023-05-18T08:23:02;16.10;85.80
32097;DHT22;18610;49.916;8.284;2023-05-18T08:25:28;16.30;83.90
32097;DHT22;18610;49.916;8.284;2023-05-18T08:27:55;16.40;81.30
32097;DHT22;18610;49.916;8.284;2023-05-18T08:30:22;16.50;80.70
32097;DHT22;18610;49.916;8.284;2023-05-18T08:32:50;16.60;79.60
32097;DHT22;18610;49.916;8.284;2023-05-18T08:35:18;16.70;79.30
32097;DHT22;18610;49.916;8.284;2023-05-18T08:37:44;16.70;79.40
32097;DHT22;18610;49.916;8.284;2023-05-18T08:40:11;16.80;78.90
32097;DHT22;18610;49.916;8.284;2023-05-18T08:42:42;16.90;78.50
32097;DHT22;18610;49.916;8.284;2023-05-18T08:45:12;16.90;79.20
32097;DHT22;18610;49.916;8.284;2023-05-18T08:47:40;17.10;76.20
32097;DHT22;18610;49.916;8.284;2023-05-18T08:50:08;17.10;76.50
32097;DHT22;18610;49.916;8.284;2023-05-18T08:52:41;17.20;77.90
32097;DHT22;18610;49.916;8.284;2023-05-18T08:55:12;17.30;78.10
32097;DHT22;18610;49.916;8.284;2023-05-18T08:57:42;17.50;78.40
32097;DHT22;18610;49.916;8.284;2023-05-18T09:00:15;17.70;77.30
32097;DHT22;18610;49.916;8.284;2023-05-18T09:02:42;17.80;75.20
32097;DHT22;18610;49.916;8.284;2023-05-18T09:05:09;18.00;74.60
32097;DHT22;18610;49.916;8.284;2023-05-18T09:07:39;18.10;75.70
32097;DHT22;18610;49.916;8.284;2023-05-18T09:10:09;18.20;71.30
32097;DHT22;18610;49.916;8.284;2023-05-18T09:12:36;18.20;73.80
32097;DHT22;18610;49.916;8.284;2023-05-18T09:15:05;18.30;74.70
32097;DHT22;18610;49.916;8.284;2023-05-18T09:17:32;18.40;71.00
32097;DHT22;18610;49.916;8.284;2023-05-18T09:19:59;18.60;71.00
32097;DHT22;18610;49.916;8.284;2023-05-18T09:22:25;18.80;71.20
32097;DHT22;18610;49.916;8.284;2023-05-18T09:24:54;18.90;68.50
32097;DHT22;18610;49.916;8.284;2023-05-18T09:27:21;19.10;68.80
32097;DHT22;18610;49.916;8.284;2023-05-18T09:29:52;19.20;68.30
32097;DHT22;18610;49.916;8.284;2023-05-18T09:32:19;19.40;66.50
32097;DHT22;18610;49.916;8.284;2023-05-18T09:34:46;19.50;66.00
32097;DHT22;18610;49.916;8.284;2023-05-18T09:37:15;19.60;65.10
32097;DHT22;18610;49.916;8.284;2023-05-18T09:39:42;19.50;63.70
32097;DHT22;18610;49.916;8.284;2023-05-18T09:42:10;19.50;62.90
32097;DHT22;18610;49.916;8.284;2023-05-18T09:44:37;19.50;62.40
32097;DHT22;18610;49.916;8.284;2023-05-18T09:47:07;19.50;63.00
32097;DHT22;18610;49.916;8.284;2023-05-18T09:49:34;19.70;63.00
32097;DHT22;18610;49.916;8.284;2023-05-18T09:52:05;19.80;61.70
32097;DHT22;18610;49.916;8.284;2023-05-18T09:54:34;19.90;59.60
32097;DHT22;18610;49.916;8.284;2023-05-18T09:57:02;20.00;59.30
32097;DHT22;18610;49.916;8.284;2023-05-18T09:59:30;20.10;59.70
32097;DHT22;18610;49.916;8.284;2023-05-18T10:02:00;20.20;58.70
32097;DHT22;18610;49.916;8.284;2023-05-18T10:04:36;20.40;57.60
32097;DHT22;18610;49.916;8.284;2023-05-18T10:07:08;20.50;57.70
32097;DHT22;18610;49.916;8.284;2023-05-18T10:09:35;20.70;56.20
32097;DHT22;18610;49.916;8.284;2023-05-18T10:12:02;20.70;56.40
32097;DHT22;18610;49.916;8.284;2023-05-18T10:14:33;20.70;57.10
32097;DHT22;18610;49.916;8.284;2023-05-18T10:17:02;20.70;57.20
32097;DHT22;18610;49.916;8.284;2023-05-18T10:19:33;20.80;57.20
32097;DHT22;18610;49.916;8.284;2023-05-18T10:22:01;20.70;56.50
32097;DHT22;18610;49.916;8.284;2023-05-18T10:24:29;20.70;55.40
32097;DHT22;18610;49.916;8.284;2023-05-18T10:27:00;20.90;56.30
32097;DHT22;18610;49.916;8.284;2023-05-18T10:29:29;21.10;56.10
32097;DHT22;18610;49.916;8.284;2023-05-18T10:31:59;21.40;55.80
32097;DHT22;18610;49.916;8.284;2023-05-18T10:34:28;21.60;55.80
32097;DHT22;18610;49.916;8.284;2023-05-18T10:36:55;21.90;56.20
32097;DHT22;18610;49.916;8.284;2023-05-18T10:39:23;22.10;55.70
32097;DHT22;18610;49.916;8.284;2023-05-18T10:41:53;22.20;55.40
32097;DHT22;18610;49.916;8.284;2023-05-18T10:44:21;22.20;54.20
32097;DHT22;18610;49.916;8.284;2023-05-18T10:46:49;22.10;54.50
32097;DHT22;18610;49.916;8.284;2023-05-18T10:49:18;22.10;52.60
32097;DHT22;18610;49.916;8.284;2023-05-18T10:51:51;22.20;53.30
32097;DHT22;18610;49.916;8.284;2023-05-18T10:54:18;22.30;53.20
32097;DHT22;18610;49.916;8.284;2023-05-18T10:56:49;22.60;52.70
32097;DHT22;18610;49.916;8.284;2023-05-18T10:59:17;22.80;54.40
32097;DHT22;18610;49.916;8.284;2023-05-18T11:01:45;23.10;52.30
32097;DHT22;18610;49.916;8.284;2023-05-18T11:04:12;23.20;52.20
32097;DHT22;18610;49.916;8.284;2023-05-18T11:06:40;23.00;52.00
32097;DHT22;18610;49.916;8.284;2023-05-18T11:09:08;22.80;52.10
32097;DHT22;18610;49.916;8.284;2023-05-18T11:11:50;22.90;52.30
32097;DHT22;18610;49.916;8.284;2023-05-18T11:14:24;23.10;53.30
32097;DHT22;18610;49.916;8.284;2023-05-18T11:16:52;23.40;52.00
32097;DHT22;18610;49.916;8.284;2023-05-18T11:19:23;23.50;49.80
32097;DHT22;18610;49.916;8.284;2023-05-18T11:21:52;23.40;50.20
32097;DHT22;18610;49.916;8.284;2023-05-18T11:24:23;23.10;48.90
32097;DHT22;18610;49.916;8.284;2023-05-18T11:26:51;23.00;48.80
32097;DHT22;18610;49.916;8.284;2023-05-18T11:29:21;23.00;48.50
32097;DHT22;18610;49.916;8.284;2023-05-18T11:31:49;22.90;48.60
32097;DHT22;18610;49.916;8.284;2023-05-18T11:34:35;22.80;49.10
32097;DHT22;18610;49.916;8.284;2023-05-18T11:37:03;22.60;47.50
32097;DHT22;18610;49.916;8.284;2023-05-18T11:39:31;22.70;49.60
32097;DHT22;18610;49.916;8.284;2023-05-18T11:41:59;22.80;49.70
32097;DHT22;18610;49.916;8.284;2023-05-18T11:44:27;23.00;48.50
32097;DHT22;18610;49.916;8.284;2023-05-18T11:47:00;23.20;49.00
32097;DHT22;18610;49.916;8.284;2023-05-18T11:49:30;23.50;48.30
32097;DHT22;18610;49.916;8.284;2023-05-18T11:52:12;23.90;48.70
32097;DHT22;18610;49.916;8.284;2023-05-18T11:54:41;24.20;47.90
32097;DHT22;18610;49.916;8.284;2023-05-18T11:57:09;24.30;48.60
32097;DHT22;18610;49.916;8.284;2023-05-18T11:59:38;24.40;49.10
32097;DHT22;18610;49.916;8.284;2023-05-18T12:02:06;24.40;46.60
32097;DHT22;18610;49.916;8.284;2023-05-18T12:04:41;24.40;46.90
32097;DHT22;18610;49.916;8.284;2023-05-18T12:07:10;24.60;47.50
32097;DHT22;18610;49.916;8.284;2023-05-18T12:09:39;24.40;47.90
32097;DHT22;18610;49.916;8.284;2023-05-18T12:12:09;24.20;48.20
32097;DHT22;18610;49.916;8.284;2023-05-18T12:14:37;24.10;47.50
32097;DHT22;18610;49.916;8.284;2023-05-18T12:17:05;24.00;46.60
32097;DHT22;18610;49.916;8.284;2023-05-18T12:19:41;24.10;47.20
32097;DHT22;18610;49.916;8.284;2023-05-18T12:22:11;24.30;47.20
32097;DHT22;18610;49.916;8.284;2023-05-18T12:24:38;24.60;47.10
32097;DHT22;18610;49.916;8.284;2023-05-18T12:27:06;25.00;47.20
32097;DHT22;18610;49.916;8.284;2023-05-18T12:29:33;25.20;46.30
32097;DHT22;18610;49.916;8.284;2023-05-18T12:32:04;25.50;46.00
32097;DHT22;18610;49.916;8.284;2023-05-18T12:34:31;25.80;45.30
32097;DHT22;18610;49.916;8.284;2023-05-18T12:36:58;25.80;43.20
32097;DHT22;18610;49.916;8.284;2023-05-18T12:39:26;25.80;43.80
32097;DHT22;18610;49.916;8.284;2023-05-18T12:41:52;25.60;43.50
32097;DHT22;18610;49.916;8.284;2023-05-18T12:44:20;25.60;44.50
32097;DHT22;18610;49.916;8.284;2023-05-18T12:46:47;25.70;44.40
32097;DHT22;18610;49.916;8.284;2023-05-18T12:49:14;25.50;43.90
32097;DHT22;18610;49.916;8.284;2023-05-18T12:51:43;25.50;43.70
32097;DHT22;18610;49.916;8.284;2023-05-18T12:54:10;25.40;44.50
32097;DHT22;18610;49.916;8.284;2023-05-18T12:56:51;25.30;44.00
32097;DHT22;18610;49.916;8.284;2023-05-18T12:59:23;25.20;44.10
32097;DHT22;18610;49.916;8.284;2023-05-18T13:01:50;25.40;44.20
32097;DHT22;18610;49.916;8.284;2023-05-18T13:04:17;25.70;44.30
32097;DHT22;18610;49.916;8.284;2023-05-18T13:06:44;25.90;43.90
32097;DHT22;18610;49.916;8.284;2023-05-18T13:09:11;26.00;42.70
32097;DHT22;18610;49.916;8.284;2023-05-18T13:11:38;26.20;43.50
32097;DHT22;18610;49.916;8.284;2023-05-18T13:14:07;26.40;43.30
32097;DHT22;18610;49.916;8.284;2023-05-18T13:16:38;26.40;43.00
32097;DHT22;18610;49.916;8.284;2023-05-18T13:19:06;26.20;42.50
32097;DHT22;18610;49.916;8.284;2023-05-18T13:21:33;26.00;42.50
32097;DHT22;18610;49.916;8.284;2023-05-18T13:24:00;26.00;43.20
32097;DHT22;18610;49.916;8.284;2023-05-18T13:26:27;26.00;41.80
32097;DHT22;18610;49.916;8.284;2023-05-18T13:28:55;26.00;40.60
32097;DHT22;18610;49.916;8.284;2023-05-18T13:31:23;26.10;41.30
32097;DHT22;18610;49.916;8.284;2023-05-18T13:33:50;26.20;41.00
32097;DHT22;18610;49.916;8.284;2023-05-18T13:36:17;26.20;40.80
32097;DHT22;18610;49.916;8.284;2023-05-18T13:38:44;26.10;41.30
32097;DHT22;18610;49.916;8.284;2023-05-18T13:41:11;26.00;40.80
32097;DHT22;18610;49.916;8.284;2023-05-18T13:43:39;25.90;40.60
32097;DHT22;18610;49.916;8.284;2023-05-18T13:46:06;25.90;41.50
32097;DHT22;18610;49.916;8.284;2023-05-18T13:48:34;25.80;41.40
32097;DHT22;18610;49.916;8.284;2023-05-18T13:51:01;25.80;42.10
32097;DHT22;18610;49.916;8.284;2023-05-18T13:53:28;25.90;43.10
32097;DHT22;18610;49.916;8.284;2023-05-18T13:55:54;26.00;43.10
32097;DHT22;18610;49.916;8.284;2023-05-18T13:58:21;26.20;42.60
32097;DHT22;18610;49.916;8.284;2023-05-18T14:00:49;26.20;40.90
32097;DHT22;18610;49.916;8.284;2023-05-18T14:03:18;26.10;40.80
32097;DHT22;18610;49.916;8.284;2023-05-18T14:05:46;26.10;40.60
32097;DHT22;18610;49.916;8.284;2023-05-18T14:08:13;26.10;41.40
32097;DHT22;18610;49.916;8.284;2023-05-18T14:10:39;26.20;40.40
32097;DHT22;18610;49.916;8.284;2023-05-18T14:13:06;26.10;41.30
32097;DHT22;18610;49.916;8.284;2023-05-18T14:15:33;26.00;41.40
32097;DHT22;18610;49.916;8.284;2023-05-18T14:18:00;25.80;40.50
32097;DHT22;18610;49.916;8.284;2023-05-18T14:20:27;25.30;41.50
32097;DHT22;18610;49.916;8.284;2023-05-18T14:22:55;25.10;41.40
32097;DHT22;18610;49.916;8.284;2023-05-18T14:25:22;24.90;41.70
32097;DHT22;18610;49.916;8.284;2023-05-18T14:27:49;25.00;42.60
32097;DHT22;18610;49.916;8.284;2023-05-18T14:30:15;25.00;43.70
32097;DHT22;18610;49.916;8.284;2023-05-18T14:32:42;25.00;42.40
32097;DHT22;18610;49.916;8.284;2023-05-18T14:35:09;25.00;42.70
32097;DHT22;18610;49.916;8.284;2023-05-18T14:37:35;24.80;41.40
32097;DHT22;18610;49.916;8.284;2023-05-18T14:40:05;24.50;42.30
32097;DHT22;18610;49.916;8.284;2023-05-18T14:42:32;24.40;42.80
32097;DHT22;18610;49.916;8.284;2023-05-18T14:45:00;24.30;42.70
32097;DHT22;18610;49.916;8.284;2023-05-18T14:47:27;24.20;42.80
32097;DHT22;18610;49.916;8.284;2023-05-18T14:49:54;24.10;43.70
32097;DHT22;18610;49.916;8.284;2023-05-18T14:52:20;24.10;43.70
32097;DHT22;18610;49.916;8.284;2023-05-18T14:54:47;24.20;42.20
32097;DHT22;18610;49.916;8.284;2023-05-18T14:57:15;24.20;42.90
32097;DHT22;18610;49.916;8.284;2023-05-18T14:59:42;24.20;43.20
32097;DHT22;18610;49.916;8.284;2023-05-18T15:02:08;24.00;43.40
32097;DHT22;18610;49.916;8.284;2023-05-18T15:04:35;23.90;43.70
32097;DHT22;18610;49.916;8.284;2023-05-18T15:07:02;23.70;43.20
32097;DHT22;18610;49.916;8.284;2023-05-18T15:09:30;23.70;44.20
32097;DHT22;18610;49.916;8.284;2023-05-18T15:11:56;23.70;44.40
32097;DHT22;18610;49.916;8.284;2023-05-18T15:14:25;23.50;43.10
32097;DHT22;18610;49.916;8.284;2023-05-18T15:16:51;23.20;43.50
32097;DHT22;18610;49.916;8.284;2023-05-18T15:19:18;23.10;45.00
32097;DHT22;18610;49.916;8.284;2023-05-18T15:21:45;23.20;46.50
32097;DHT22;18610;49.916;8.284;2023-05-18T15:24:13;23.20;45.70
32097;DHT22;18610;49.916;8.284;2023-05-18T15:26:39;23.20;45.30
32097;DHT22;18610;49.916;8.284;2023-05-18T15:29:06;23.30;45.50
32097;DHT22;18610;49.916;8.284;2023-05-18T15:31:34;23.40;45.70
32097;DHT22;18610;49.916;8.284;2023-05-18T15:34:04;23.50;45.80
32097;DHT22;18610;49.916;8.284;2023-05-18T15:36:30;23.50;45.50
32097;DHT22;18610;49.916;8.284;2023-05-18T15:38:58;23.40;44.70